sensor_id;sensor_type;location;lat;lon;timestamp;P1;durP1;ratioP1;P2;durP2;ratioP2
20593;SDS011;10455;48.732;10.266;2022-09-21T00:02:20;6.83;;;5.30;;
20593;SDS011;10455;48.732;10.266;2022-09-21T00:07:22;6.80;;;5.37;;
20593;SDS011;10455;48.732;10.266;2022-09-21T00:12:24;9.27;;;5.40;;
20593;SDS011;10455;48.732;10.266;2022-09-21T00:17:28;7.43;;;5.47;;
20593;SDS011;10455;48.732;10.266;2022-09-21T00:22:30;5.83;;;5.07;;
20593;SDS011;10455;48.732;10.266;2022-09-21T00:27:33;6.37;;;5.00;;
20593;SDS011;10455;48.732;10.266;2022-09-21T00:32:37;8.97;;;5.03;;
20593;SDS011;10455;48.732;10.266;2022-09-21T00:37:39;6.27;;;4.83;;
20593;SDS011;10455;48.732;10.266;2022-09-21T00:42:41;7.23;;;5.27;;
20593;SDS011;10455;48.732;10.266;2022-09-21T00:47:46;8.00;;;5.40;;
20593;SDS011;10455;48.732;10.266;2022-09-21T00:52:51;16.97;;;6.83;;
20593;SDS011;10455;48.732;10.266;2022-09-21T00:57:58;41.37;;;12.87;;
20593;SDS011;10455;48.732;10.266;2022-09-21T01:03:05;48.87;;;10.87;;
20593;SDS011;10455;48.732;10.266;2022-09-21T01:08:08;12.30;;;8.33;;
20593;SDS011;10455;48.732;10.266;2022-09-21T01:13:15;30.93;;;10.10;;
20593;SDS011;10455;48.732;10.266;2022-09-21T01:18:28;23.80;;;8.73;;
20593;SDS011;10455;48.732;10.266;2022-09-21T01:23:45;13.20;;;6.40;;
20593;SDS011;10455;48.732;10.266;2022-09-21T01:29:11;13.07;;;8.43;;
20593;SDS011;10455;48.732;10.266;2022-09-21T01:34:21;10.23;;;7.20;;
20593;SDS011;10455;48.732;10.266;2022-09-21T01:39:28;13.70;;;7.60;;
20593;SDS011;10455;48.732;10.266;2022-09-21T01:44:33;12.83;;;7.67;;
20593;SDS011;10455;48.732;10.266;2022-09-21T01:49:39;24.53;;;9.03;;
20593;SDS011;10455;48.732;10.266;2022-09-21T01:54:46;18.37;;;8.67;;
20593;SDS011;10455;48.732;10.266;2022-09-21T01:59:53;20.37;;;7.53;;
20593;SDS011;10455;48.732;10.266;2022-09-21T02:04:58;18.10;;;8.80;;
20593;SDS011;10455;48.732;10.266;2022-09-21T02:10:02;11.17;;;7.50;;
20593;SDS011;10455;48.732;10.266;2022-09-21T02:15:08;14.00;;;7.13;;
20593;SDS011;10455;48.732;10.266;2022-09-21T02:20:14;19.73;;;9.23;;
20593;SDS011;10455;48.732;10.266;2022-09-21T02:25:20;12.00;;;7.27;;
20593;SDS011;10455;48.732;10.266;2022-09-21T02:30:31;12.13;;;9.17;;
20593;SDS011;10455;48.732;10.266;2022-09-21T02:35:36;31.67;;;20.93;;
20593;SDS011;10455;48.732;10.266;2022-09-21T02:40:42;12.03;;;7.87;;
20593;SDS011;10455;48.732;10.266;2022-09-21T02:45:55;16.17;;;8.23;;
20593;SDS011;10455;48.732;10.266;2022-09-21T02:51:04;20.77;;;14.37;;
20593;SDS011;10455;48.732;10.266;2022-09-21T02:56:09;19.53;;;12.93;;
20593;SDS011;10455;48.732;10.266;2022-09-21T03:01:15;24.67;;;16.80;;
20593;SDS011;10455;48.732;10.266;2022-09-21T03:06:19;31.30;;;24.33;;
20593;SDS011;10455;48.732;10.266;2022-09-21T03:11:21;10.73;;;8.50;;
20593;SDS011;10455;48.732;10.266;2022-09-21T03:16:24;10.67;;;7.13;;
20593;SDS011;10455;48.732;10.266;2022-09-21T03:21:28;22.53;;;8.37;;
20593;SDS011;10455;48.732;10.266;2022-09-21T03:26:30;12.87;;;6.90;;
20593;SDS011;10455;48.732;10.266;2022-09-21T03:31:34;15.47;;;8.43;;
20593;SDS011;10455;48.732;10.266;2022-09-21T03:36:36;8.33;;;6.43;;
20593;SDS011;10455;48.732;10.266;2022-09-21T03:41:39;11.10;;;7.50;;
20593;SDS011;10455;48.732;10.266;2022-09-21T03:46:42;14.10;;;7.33;;
20593;SDS011;10455;48.732;10.266;2022-09-21T03:51:44;13.43;;;8.00;;
20593;SDS011;10455;48.732;10.266;2022-09-21T03:56:46;13.03;;;7.03;;
20593;SDS011;10455;48.732;10.266;2022-09-21T04:01:50;12.87;;;7.40;;
20593;SDS011;10455;48.732;10.266;2022-09-21T04:06:52;9.93;;;6.10;;
20593;SDS011;10455;48.732;10.266;2022-09-21T04:11:54;9.00;;;6.13;;
20593;SDS011;10455;48.732;10.266;2022-09-21T04:16:57;6.37;;;5.70;;
20593;SDS011;10455;48.732;10.266;2022-09-21T04:21:59;14.37;;;5.97;;
20593;SDS011;10455;48.732;10.266;2022-09-21T04:27:02;6.80;;;5.90;;
20593;SDS011;10455;48.732;10.266;2022-09-21T04:32:05;7.83;;;6.00;;
20593;SDS011;10455;48.732;10.266;2022-09-21T04:37:08;21.70;;;8.33;;
20593;SDS011;10455;48.732;10.266;2022-09-21T04:42:11;14.07;;;8.57;;
20593;SDS011;10455;48.732;10.266;2022-09-21T04:47:14;19.47;;;9.97;;
20593;SDS011;10455;48.732;10.266;2022-09-21T04:52:16;12.90;;;7.87;;
20593;SDS011;10455;48.732;10.266;2022-09-21T04:57:18;10.83;;;8.20;;
20593;SDS011;10455;48.732;10.266;2022-09-21T05:02:22;13.00;;;8.80;;
20593;SDS011;10455;48.732;10.266;2022-09-21T05:07:24;18.93;;;9.67;;
20593;SDS011;10455;48.732;10.266;2022-09-21T05:12:26;22.83;;;10.57;;
20593;SDS011;10455;48.732;10.266;2022-09-21T05:17:30;21.23;;;10.00;;
20593;SDS011;10455;48.732;10.266;2022-09-21T05:22:32;17.13;;;11.30;;
20593;SDS011;10455;48.732;10.266;2022-09-21T05:27:34;12.93;;;9.43;;
20593;SDS011;10455;48.732;10.266;2022-09-21T05:32:40;24.57;;;14.27;;
20593;SDS011;10455;48.732;10.266;2022-09-21T05:37:47;39.83;;;23.80;;
20593;SDS011;10455;48.732;10.266;2022-09-21T05:42:55;35.63;;;29.07;;
20593;SDS011;10455;48.732;10.266;2022-09-21T05:48:02;20.40;;;17.97;;
20593;SDS011;10455;48.732;10.266;2022-09-21T05:53:23;24.40;;;21.60;;
20593;SDS011;10455;48.732;10.266;2022-09-21T05:58:39;30.83;;;22.03;;
20593;SDS011;10455;48.732;10.266;2022-09-21T06:03:50;19.37;;;15.57;;
20593;SDS011;10455;48.732;10.266;2022-09-21T06:08:54;20.60;;;16.87;;
20593;SDS011;10455;48.732;10.266;2022-09-21T06:13:56;19.47;;;16.10;;
20593;SDS011;10455;48.732;10.266;2022-09-21T06:18:59;22.43;;;15.77;;
20593;SDS011;10455;48.732;10.266;2022-09-21T06:24:02;17.43;;;13.70;;
20593;SDS011;10455;48.732;10.266;2022-09-21T06:29:04;11.40;;;10.40;;
20593;SDS011;10455;48.732;10.266;2022-09-21T06:34:07;12.63;;;9.40;;
20593;SDS011;10455;48.732;10.266;2022-09-21T06:39:09;9.80;;;8.37;;
20593;SDS011;10455;48.732;10.266;2022-09-21T06:44:12;63.30;;;16.83;;
20593;SDS011;10455;48.732;10.266;2022-09-21T06:49:15;353.03;;;33.93;;
20593;SDS011;10455;48.732;10.266;2022-09-21T06:54:18;9.32;;;8.43;;
20593;SDS011;10455;48.732;10.266;2022-09-21T06:59:20;413.83;;;36.60;;
20593;SDS011;10455;48.732;10.266;2022-09-21T07:04:24;238.57;;;27.10;;
20593;SDS011;10455;48.732;10.266;2022-09-21T07:09:28;540.03;;;46.47;;
20593;SDS011;10455;48.732;10.266;2022-09-21T07:14:30;59.35;;;8.95;;
20593;SDS011;10455;48.732;10.266;2022-09-21T07:19:34;21.98;;;5.93;;
20593;SDS011;10455;48.732;10.266;2022-09-21T07:24:36;4.18;;;3.58;;
20593;SDS011;10455;48.732;10.266;2022-09-21T07:29:38;4.38;;;3.92;;
20593;SDS011;10455;48.732;10.266;2022-09-21T07:34:41;5.05;;;3.80;;
20593;SDS011;10455;48.732;10.266;2022-09-21T07:39:43;4.22;;;3.83;;
20593;SDS011;10455;48.732;10.266;2022-09-21T07:44:45;5.65;;;3.55;;
20593;SDS011;10455;48.732;10.266;2022-09-21T07:49:49;5.50;;;3.30;;
20593;SDS011;10455;48.732;10.266;2022-09-21T07:54:51;3.58;;;3.28;;
20593;SDS011;10455;48.732;10.266;2022-09-21T07:59:53;3.40;;;3.10;;
20593;SDS011;10455;48.732;10.266;2022-09-21T08:04:58;4.35;;;3.22;;
20593;SDS011;10455;48.732;10.266;2022-09-21T08:10:00;4.78;;;3.30;;
20593;SDS011;10455;48.732;10.266;2022-09-21T08:15:03;4.63;;;3.35;;
20593;SDS011;10455;48.732;10.266;2022-09-21T08:20:08;4.57;;;2.90;;
20593;SDS011;10455;48.732;10.266;2022-09-21T08:25:10;4.70;;;2.92;;
20593;SDS011;10455;48.732;10.266;2022-09-21T08:30:13;2.40;;;2.20;;
20593;SDS011;10455;48.732;10.266;2022-09-21T08:35:16;3.47;;;2.20;;
20593;SDS011;10455;48.732;10.266;2022-09-21T08:40:18;2.30;;;2.10;;
20593;SDS011;10455;48.732;10.266;2022-09-21T08:45:21;3.00;;;1.80;;
20593;SDS011;10455;48.732;10.266;2022-09-21T08:50:32;2.80;;;1.90;;
20593;SDS011;10455;48.732;10.266;2022-09-21T08:55:37;2.45;;;1.80;;
20593;SDS011;10455;48.732;10.266;2022-09-21T09:00:39;2.42;;;1.55;;
20593;SDS011;10455;48.732;10.266;2022-09-21T09:05:45;2.00;;;1.80;;
20593;SDS011;10455;48.732;10.266;2022-09-21T09:10:55;2.55;;;1.80;;
20593;SDS011;10455;48.732;10.266;2022-09-21T09:16:10;3.03;;;1.70;;
20593;SDS011;10455;48.732;10.266;2022-09-21T09:21:20;1.95;;;1.77;;
20593;SDS011;10455;48.732;10.266;2022-09-21T09:26:28;3.30;;;2.15;;
20593;SDS011;10455;48.732;10.266;2022-09-21T09:31:36;3.85;;;2.25;;
20593;SDS011;10455;48.732;10.266;2022-09-21T09:36:41;3.10;;;2.20;;
20593;SDS011;10455;48.732;10.266;2022-09-21T09:41:54;3.17;;;1.90;;
20593;SDS011;10455;48.732;10.266;2022-09-21T09:47:22;6.78;;;2.05;;
20593;SDS011;10455;48.732;10.266;2022-09-21T09:52:36;1.95;;;1.80;;
20593;SDS011;10455;48.732;10.266;2022-09-21T09:57:38;2.10;;;1.90;;
20593;SDS011;10455;48.732;10.266;2022-09-21T10:02:47;2.28;;;1.65;;
20593;SDS011;10455;48.732;10.266;2022-09-21T10:07:51;2.47;;;1.95;;
20593;SDS011;10455;48.732;10.266;2022-09-21T10:12:53;2.90;;;2.30;;
20593;SDS011;10455;48.732;10.266;2022-09-21T10:17:59;2.33;;;1.70;;
20593;SDS011;10455;48.732;10.266;2022-09-21T10:23:09;2.67;;;2.08;;
20593;SDS011;10455;48.732;10.266;2022-09-21T10:28:13;2.95;;;1.95;;
20593;SDS011;10455;48.732;10.266;2022-09-21T10:33:23;2.28;;;2.08;;
20593;SDS011;10455;48.732;10.266;2022-09-21T10:38:26;2.00;;;1.90;;
20593;SDS011;10455;48.732;10.266;2022-09-21T10:43:29;2.10;;;1.90;;
20593;SDS011;10455;48.732;10.266;2022-09-21T10:48:35;2.00;;;1.80;;
20593;SDS011;10455;48.732;10.266;2022-09-21T10:53:38;2.65;;;1.80;;
20593;SDS011;10455;48.732;10.266;2022-09-21T11:04:14;1.80;;;1.70;;
20593;SDS011;10455;48.732;10.266;2022-09-21T11:09:21;1.90;;;1.70;;
20593;SDS011;10455;48.732;10.266;2022-09-21T11:14:33;1.40;;;1.30;;
20593;SDS011;10455;48.732;10.266;2022-09-21T11:19:42;1.42;;;1.30;;
20593;SDS011;10455;48.732;10.266;2022-09-21T11:24:53;2.30;;;1.60;;
20593;SDS011;10455;48.732;10.266;2022-09-21T11:30:01;1.77;;;1.40;;
20593;SDS011;10455;48.732;10.266;2022-09-21T11:40:52;1.17;;;1.10;;
20593;SDS011;10455;48.732;10.266;2022-09-21T11:46:09;1.52;;;1.40;;
20593;SDS011;10455;48.732;10.266;2022-09-21T11:51:23;1.67;;;1.58;;
20593;SDS011;10455;48.732;10.266;2022-09-21T11:56:42;1.85;;;1.50;;
20593;SDS011;10455;48.732;10.266;2022-09-21T12:01:54;1.90;;;1.40;;
20593;SDS011;10455;48.732;10.266;2022-09-21T12:07:09;2.25;;;1.52;;
20593;SDS011;10455;48.732;10.266;2022-09-21T12:12:22;2.80;;;1.88;;
20593;SDS011;10455;48.732;10.266;2022-09-21T12:17:33;2.88;;;1.80;;
20593;SDS011;10455;48.732;10.266;2022-09-21T12:22:45;1.92;;;1.60;;
20593;SDS011;10455;48.732;10.266;2022-09-21T12:27:50;1.95;;;1.77;;
20593;SDS011;10455;48.732;10.266;2022-09-21T12:32:59;2.90;;;2.10;;
20593;SDS011;10455;48.732;10.266;2022-09-21T12:38:09;2.17;;;1.40;;
20593;SDS011;10455;48.732;10.266;2022-09-21T12:43:20;1.70;;;1.58;;
20593;SDS011;10455;48.732;10.266;2022-09-21T12:48:31;1.70;;;1.60;;
20593;SDS011;10455;48.732;10.266;2022-09-21T12:53:39;1.88;;;1.60;;
20593;SDS011;10455;48.732;10.266;2022-09-21T12:58:52;2.08;;;1.80;;
20593;SDS011;10455;48.732;10.266;2022-09-21T13:04:14;1.88;;;1.60;;
20593;SDS011;10455;48.732;10.266;2022-09-21T13:09:28;2.33;;;1.67;;
20593;SDS011;10455;48.732;10.266;2022-09-21T13:14:33;2.08;;;1.65;;
20593;SDS011;10455;48.732;10.266;2022-09-21T13:19:41;2.75;;;1.80;;
20593;SDS011;10455;48.732;10.266;2022-09-21T13:24:45;1.80;;;1.60;;
20593;SDS011;10455;48.732;10.266;2022-09-21T13:35:51;2.22;;;1.95;;
20593;SDS011;10455;48.732;10.266;2022-09-21T13:41:01;1.77;;;1.50;;
20593;SDS011;10455;48.732;10.266;2022-09-21T13:46:05;1.95;;;1.83;;
20593;SDS011;10455;48.732;10.266;2022-09-21T13:51:08;4.00;;;1.73;;
20593;SDS011;10455;48.732;10.266;2022-09-21T13:56:16;1.95;;;1.50;;
20593;SDS011;10455;48.732;10.266;2022-09-21T14:01:20;1.50;;;1.40;;
20593;SDS011;10455;48.732;10.266;2022-09-21T14:06:26;2.10;;;1.30;;
20593;SDS011;10455;48.732;10.266;2022-09-21T14:11:34;1.95;;;1.50;;
20593;SDS011;10455;48.732;10.266;2022-09-21T14:16:48;3.20;;;1.65;;
20593;SDS011;10455;48.732;10.266;2022-09-21T14:27:32;2.35;;;1.30;;
20593;SDS011;10455;48.732;10.266;2022-09-21T14:32:40;2.65;;;1.52;;
20593;SDS011;10455;48.732;10.266;2022-09-21T14:37:47;1.65;;;1.45;;
20593;SDS011;10455;48.732;10.266;2022-09-21T14:42:53;2.00;;;1.80;;
20593;SDS011;10455;48.732;10.266;2022-09-21T14:47:59;2.30;;;1.60;;
20593;SDS011;10455;48.732;10.266;2022-09-21T14:53:18;1.55;;;1.45;;
20593;SDS011;10455;48.732;10.266;2022-09-21T14:58:36;1.95;;;1.70;;
20593;SDS011;10455;48.732;10.266;2022-09-21T15:03:53;1.80;;;1.52;;
20593;SDS011;10455;48.732;10.266;2022-09-21T15:09:23;1.50;;;1.30;;
20593;SDS011;10455;48.732;10.266;2022-09-21T15:14:54;1.73;;;1.63;;
20593;SDS011;10455;48.732;10.266;2022-09-21T15:20:14;1.70;;;1.60;;
20593;SDS011;10455;48.732;10.266;2022-09-21T15:25:18;4.53;;;1.70;;
20593;SDS011;10455;48.732;10.266;2022-09-21T15:30:22;2.65;;;1.35;;
20593;SDS011;10455;48.732;10.266;2022-09-21T15:35:26;4.47;;;2.10;;
20593;SDS011;10455;48.732;10.266;2022-09-21T15:40:33;2.53;;;1.73;;
20593;SDS011;10455;48.732;10.266;2022-09-21T15:45:48;2.05;;;1.85;;
20593;SDS011;10455;48.732;10.266;2022-09-21T15:50:54;2.10;;;1.90;;
20593;SDS011;10455;48.732;10.266;2022-09-21T15:55:59;2.40;;;1.80;;
20593;SDS011;10455;48.732;10.266;2022-09-21T16:01:07;2.20;;;1.93;;
20593;SDS011;10455;48.732;10.266;2022-09-21T16:06:17;2.70;;;1.73;;
20593;SDS011;10455;48.732;10.266;2022-09-21T16:11:32;5.37;;;4.83;;
20593;SDS011;10455;48.732;10.266;2022-09-21T16:22:13;3.63;;;2.20;;
20593;SDS011;10455;48.732;10.266;2022-09-21T16:27:18;2.60;;;2.40;;
20593;SDS011;10455;48.732;10.266;2022-09-21T16:32:26;3.63;;;2.03;;
20593;SDS011;10455;48.732;10.266;2022-09-21T16:37:32;2.20;;;2.00;;
20593;SDS011;10455;48.732;10.266;2022-09-21T16:42:36;4.00;;;3.60;;
20593;SDS011;10455;48.732;10.266;2022-09-21T16:47:39;2.47;;;2.10;;
20593;SDS011;10455;48.732;10.266;2022-09-21T16:52:42;3.37;;;1.80;;
20593;SDS011;10455;48.732;10.266;2022-09-21T16:57:47;1.97;;;1.80;;
20593;SDS011;10455;48.732;10.266;2022-09-21T17:02:49;1.80;;;1.70;;
20593;SDS011;10455;48.732;10.266;2022-09-21T17:07:53;2.50;;;2.27;;
20593;SDS011;10455;48.732;10.266;2022-09-21T17:12:57;2.67;;;2.03;;
20593;SDS011;10455;48.732;10.266;2022-09-21T17:17:59;2.20;;;2.00;;
20593;SDS011;10455;48.732;10.266;2022-09-21T17:23:02;2.40;;;2.03;;
20593;SDS011;10455;48.732;10.266;2022-09-21T17:28:10;4.67;;;3.23;;
20593;SDS011;10455;48.732;10.266;2022-09-21T17:33:14;3.33;;;3.13;;
20593;SDS011;10455;48.732;10.266;2022-09-21T17:38:18;4.57;;;3.07;;
20593;SDS011;10455;48.732;10.266;2022-09-21T17:43:31;6.47;;;5.37;;
20593;SDS011;10455;48.732;10.266;2022-09-21T17:48:41;31.03;;;19.60;;
20593;SDS011;10455;48.732;10.266;2022-09-21T17:53:45;21.37;;;14.67;;
20593;SDS011;10455;48.732;10.266;2022-09-21T17:58:49;10.13;;;5.73;;
20593;SDS011;10455;48.732;10.266;2022-09-21T18:03:57;10.43;;;7.63;;
20593;SDS011;10455;48.732;10.266;2022-09-21T18:09:01;4.80;;;4.40;;
20593;SDS011;10455;48.732;10.266;2022-09-21T18:14:06;24.37;;;19.73;;
20593;SDS011;10455;48.732;10.266;2022-09-21T18:19:19;5.63;;;4.70;;
20593;SDS011;10455;48.732;10.266;2022-09-21T18:24:31;15.60;;;10.93;;
20593;SDS011;10455;48.732;10.266;2022-09-21T18:29:34;21.97;;;16.27;;
20593;SDS011;10455;48.732;10.266;2022-09-21T18:40:18;4.67;;;4.17;;
20593;SDS011;10455;48.732;10.266;2022-09-21T18:45:26;6.20;;;5.23;;
20593;SDS011;10455;48.732;10.266;2022-09-21T18:50:33;6.80;;;4.50;;
20593;SDS011;10455;48.732;10.266;2022-09-21T18:55:40;7.50;;;4.60;;
20593;SDS011;10455;48.732;10.266;2022-09-21T19:00:44;6.73;;;4.60;;
20593;SDS011;10455;48.732;10.266;2022-09-21T19:05:55;5.23;;;4.10;;
20593;SDS011;10455;48.732;10.266;2022-09-21T19:11:14;5.30;;;4.80;;
20593;SDS011;10455;48.732;10.266;2022-09-21T19:16:23;18.10;;;14.43;;
20593;SDS011;10455;48.732;10.266;2022-09-21T19:21:34;11.73;;;10.53;;
20593;SDS011;10455;48.732;10.266;2022-09-21T19:26:45;9.03;;;6.57;;
20593;SDS011;10455;48.732;10.266;2022-09-21T19:31:51;8.83;;;5.87;;
20593;SDS011;10455;48.732;10.266;2022-09-21T19:36:54;5.40;;;5.00;;
20593;SDS011;10455;48.732;10.266;2022-09-21T19:42:03;5.63;;;5.13;;
20593;SDS011;10455;48.732;10.266;2022-09-21T19:47:13;18.03;;;15.87;;
20593;SDS011;10455;48.732;10.266;2022-09-21T19:52:26;13.87;;;10.73;;
20593;SDS011;10455;48.732;10.266;2022-09-21T19:57:32;6.37;;;5.77;;
20593;SDS011;10455;48.732;10.266;2022-09-21T20:02:55;7.57;;;6.87;;
20593;SDS011;10455;48.732;10.266;2022-09-21T20:08:03;8.70;;;7.90;;
20593;SDS011;10455;48.732;10.266;2022-09-21T20:13:16;5.17;;;4.77;;
20593;SDS011;10455;48.732;10.266;2022-09-21T20:18:27;6.53;;;5.67;;
20593;SDS011;10455;48.732;10.266;2022-09-21T20:23:38;7.50;;;6.27;;
20593;SDS011;10455;48.732;10.266;2022-09-21T20:28:42;6.00;;;5.33;;
20593;SDS011;10455;48.732;10.266;2022-09-21T20:33:45;6.93;;;6.23;;
20593;SDS011;10455;48.732;10.266;2022-09-21T20:38:47;6.83;;;6.23;;
20593;SDS011;10455;48.732;10.266;2022-09-21T20:43:51;7.17;;;6.30;;
20593;SDS011;10455;48.732;10.266;2022-09-21T20:48:53;7.77;;;6.50;;
20593;SDS011;10455;48.732;10.266;2022-09-21T20:54:04;7.60;;;6.93;;
20593;SDS011;10455;48.732;10.266;2022-09-21T20:59:08;7.87;;;6.67;;
20593;SDS011;10455;48.732;10.266;2022-09-21T21:04:10;8.13;;;6.17;;
20593;SDS011;10455;48.732;10.266;2022-09-21T21:09:13;7.47;;;5.57;;
20593;SDS011;10455;48.732;10.266;2022-09-21T21:14:16;5.87;;;5.27;;
20593;SDS011;10455;48.732;10.266;2022-09-21T21:19:18;6.20;;;5.60;;
20593;SDS011;10455;48.732;10.266;2022-09-21T21:24:20;9.53;;;6.87;;
20593;SDS011;10455;48.732;10.266;2022-09-21T21:29:42;8.70;;;7.77;;
20593;SDS011;10455;48.732;10.266;2022-09-21T21:34:45;9.20;;;8.27;;
20593;SDS011;10455;48.732;10.266;2022-09-21T21:39:49;9.60;;;8.60;;
20593;SDS011;10455;48.732;10.266;2022-09-21T21:44:53;7.47;;;6.77;;
20593;SDS011;10455;48.732;10.266;2022-09-21T21:49:55;7.63;;;6.93;;
20593;SDS011;10455;48.732;10.266;2022-09-21T21:54:57;5.77;;;5.27;;
20593;SDS011;10455;48.732;10.266;2022-09-21T22:00:00;6.57;;;5.13;;
20593;SDS011;10455;48.732;10.266;2022-09-21T22:05:03;5.57;;;5.07;;
20593;SDS011;10455;48.732;10.266;2022-09-21T22:10:06;6.80;;;6.13;;
20593;SDS011;10455;48.732;10.266;2022-09-21T22:15:10;6.90;;;6.20;;
20593;SDS011;10455;48.732;10.266;2022-09-21T22:20:12;9.27;;;8.30;;
20593;SDS011;10455;48.732;10.266;2022-09-21T22:25:15;9.87;;;8.83;;
20593;SDS011;10455;48.732;10.266;2022-09-21T22:30:18;7.50;;;6.47;;
20593;SDS011;10455;48.732;10.266;2022-09-21T22:35:20;7.70;;;7.00;;
20593;SDS011;10455;48.732;10.266;2022-09-21T22:40:23;6.20;;;5.60;;
20593;SDS011;10455;48.732;10.266;2022-09-21T22:45:26;6.37;;;5.77;;
20593;SDS011;10455;48.732;10.266;2022-09-21T22:50:30;6.57;;;5.80;;
20593;SDS011;10455;48.732;10.266;2022-09-21T22:55:32;6.07;;;5.50;;
20593;SDS011;10455;48.732;10.266;2022-09-21T23:00:35;7.40;;;6.70;;
20593;SDS011;10455;48.732;10.266;2022-09-21T23:05:37;10.17;;;7.23;;
20593;SDS011;10455;48.732;10.266;2022-09-21T23:10:39;8.20;;;7.10;;
20593;SDS011;10455;48.732;10.266;2022-09-21T23:15:43;6.90;;;6.23;;
20593;SDS011;10455;48.732;10.266;2022-09-21T23:20:54;11.40;;;7.63;;
20593;SDS011;10455;48.732;10.266;2022-09-21T23:26:00;8.50;;;7.67;;
20593;SDS011;10455;48.732;10.266;2022-09-21T23:31:05;7.43;;;6.77;;
20593;SDS011;10455;48.732;10.266;2022-09-21T23:36:09;8.43;;;7.30;;
20593;SDS011;10455;48.732;10.266;2022-09-21T23:41:13;7.77;;;6.23;;
20593;SDS011;10455;48.732;10.266;2022-09-21T23:46:19;7.83;;;6.63;;
20593;SDS011;10455;48.732;10.266;2022-09-21T23:51:23;6.77;;;6.17;;
20593;SDS011;10455;48.732;10.266;2022-09-21T23:56:26;9.33;;;7.90;;
